Time;durP1;ratioP1;P1;durP2;ratioP2;P2;SDS_P1;SDS_P2;PMS_P1;PMS_P2;Temp;Humidity;BMP_temperature;BMP_pressure;BME280_temperature;BME280_humidity;BME280_pressure;Samples;Min_cycle;Max_cycle;Signal;HPM_P1;HPM_P2
2021/12/09 00:01:22;;;;;;;21.67;9.80;;;4.00;99.90;;;;;;6252933;22;20049;-82
2021/12/09 00:03:52;;;;;;;25.98;10.70;;;3.90;99.90;;;;;;6253103;22;20018;-81
2021/12/09 00:06:22;;;;;;;24.30;11.15;;;5.70;99.90;;;;;;6252715;22;20024;-81
2021/12/09 00:08:48;;;;;;;22.58;10.43;;;3.70;99.90;;;;;;6252738;22;20067;-81
2021/12/09 00:11:15;;;;;;;22.92;11.20;;;4.20;99.90;;;;;;6252387;22;20383;-81
2021/12/09 00:13:40;;;;;;;23.67;10.93;;;4.00;99.90;;;;;;6252718;22;20028;-81
2021/12/09 00:16:06;;;;;;;21.35;9.85;;;3.80;99.90;;;;;;6252953;22;20383;-82
2021/12/09 00:18:32;;;;;;;17.73;10.25;;;6.20;99.90;;;;;;6227316;23;20025;-82
2021/12/09 00:20:58;;;;;;;16.48;9.38;;;4.90;99.90;;;;;;6252643;22;20029;-81
2021/12/09 00:23:23;;;;;;;16.00;8.73;;;3.60;99.90;;;;;;6253069;22;20021;-82
2021/12/09 00:25:49;;;;;;;15.18;6.78;;;5.90;99.90;;;;;;6253083;22;20394;-81
2021/12/09 00:28:15;;;;;;;535.92;33.47;;;3.70;99.90;;;;;;6252896;22;20025;-82
2021/12/09 00:30:41;;;;;;;18.20;9.60;;;3.90;99.90;;;;;;6252712;22;20018;-81
2021/12/09 00:33:07;;;;;;;18.40;9.00;;;4.00;99.90;;;;;;6252594;22;20021;-82
2021/12/09 00:35:44;;;;;;;13.90;8.57;;;6.00;99.90;;;;;;6252772;22;20136;-82
2021/12/09 00:38:18;;;;;;;25.25;11.05;;;4.30;99.90;;;;;;6252806;22;20020;-82
2021/12/09 00:40:45;;;;;;;25.73;10.48;;;4.30;99.90;;;;;;6252607;22;20371;-81
2021/12/09 00:43:10;;;;;;;17.65;9.93;;;4.10;99.90;;;;;;6252422;22;20053;-81
2021/12/09 00:45:37;;;;;;;21.55;10.15;;;4.10;99.90;;;;;;6253049;22;20021;-81
2021/12/09 00:48:03;;;;;;;28.45;11.68;;;6.20;99.90;;;;;;6254694;22;20017;-82
2021/12/09 00:50:28;;;;;;;22.50;9.63;;;4.10;99.90;;;;;;6228952;23;20013;-82
2021/12/09 00:52:54;;;;;;;13.20;7.10;;;3.90;99.90;;;;;;6229070;23;20513;-82
2021/12/09 00:55:20;;;;;;;16.38;7.18;;;5.40;99.90;;;;;;6254257;22;20047;-82
2021/12/09 00:57:46;;;;;;;9.15;6.13;;;5.70;99.90;;;;;;6255162;22;20304;-81
2021/12/09 01:00:17;;;;;;;415.92;30.90;;;3.60;99.90;;;;;;6211425;22;20012;-82
2021/12/09 01:02:43;;;;;;;15.98;9.05;;;4.40;99.90;;;;;;6275720;22;20306;-82
2021/12/09 01:05:10;;;;;;;27.92;11.35;;;6.10;99.90;;;;;;6255837;22;20072;-81
2021/12/09 01:07:37;;;;;;;17.90;9.38;;;6.00;99.90;;;;;;6254161;22;20021;-81
2021/12/09 01:10:05;;;;;;;24.40;12.80;;;4.10;99.90;;;;;;6254486;22;20017;-81
2021/12/09 01:12:31;;;;;;;25.65;11.88;;;4.10;99.90;;;;;;6253724;22;20424;-81
2021/12/09 01:14:56;;;;;;;20.80;12.02;;;5.50;99.90;;;;;;6254836;22;20018;-81
2021/12/09 01:17:22;;;;;;;16.08;7.47;;;6.10;99.90;;;;;;6253728;22;20026;-82
2021/12/09 01:19:48;;;;;;;27.75;11.80;;;3.90;99.90;;;;;;6253671;22;20014;-81
2021/12/09 01:22:14;;;;;;;14.70;8.85;;;4.80;99.90;;;;;;6228991;23;20091;-82
2021/12/09 01:24:39;;;;;;;20.80;10.68;;;6.40;99.90;;;;;;6254245;22;20013;-81
2021/12/09 01:27:05;;;;;;;14.25;7.70;;;6.10;99.90;;;;;;6228838;23;20022;-81
2021/12/09 01:29:36;;;;;;;11.70;7.07;;;4.20;99.90;;;;;;6151377;22;20388;-82
2021/12/09 01:32:06;;;;;;;17.25;8.80;;;5.30;99.90;;;;;;6254519;22;20014;-82
2021/12/09 01:34:35;;;;;;;14.82;6.97;;;4.40;99.90;;;;;;6253993;22;20017;-82
2021/12/09 01:37:01;;;;;;;16.55;8.40;;;3.90;99.90;;;;;;6254371;22;20029;-82
2021/12/09 01:39:28;;;;;;;16.58;8.57;;;4.30;99.90;;;;;;6253943;22;20440;-82
2021/12/09 01:41:56;;;;;;;11.35;6.15;;;6.60;99.90;;;;;;6253736;22;20033;-82
2021/12/09 01:44:22;;;;;;;14.57;8.80;;;3.70;99.90;;;;;;6254099;22;20091;-82
2021/12/09 01:46:48;;;;;;;16.52;9.68;;;4.60;99.90;;;;;;6254288;22;20017;-82
2021/12/09 01:49:14;;;;;;;19.50;6.47;;;5.80;99.90;;;;;;6228369;23;20107;-82
2021/12/09 01:51:41;;;;;;;13.98;8.85;;;3.90;99.90;;;;;;6254185;22;20013;-81
2021/12/09 01:54:07;;;;;;;24.63;12.27;;;5.90;99.90;;;;;;6254238;22;20025;-81
2021/12/09 01:56:33;;;;;;;18.23;9.18;;;3.90;99.90;;;;;;6253424;22;20056;-82
2021/12/09 01:59:02;;;;;;;21.67;11.73;;;5.80;99.90;;;;;;6253939;22;20034;-81
2021/12/09 02:01:29;;;;;;;20.42;9.60;;;3.70;99.90;;;;;;6253364;22;20018;-82
2021/12/09 02:03:55;;;;;;;30.35;11.18;;;5.80;99.90;;;;;;6254085;22;20730;-82
2021/12/09 02:06:22;;;;;;;26.98;12.57;;;3.50;99.90;;;;;;6228274;22;20028;-81
2021/12/09 02:08:48;;;;;;;27.33;11.50;;;4.00;99.90;;;;;;6254105;22;20101;-81
2021/12/09 02:11:15;;;;;;;24.05;12.55;;;3.50;99.90;;;;;;6253836;22;20049;-82
2021/12/09 02:13:41;;;;;;;20.35;9.35;;;4.60;99.90;;;;;;6253740;22;20009;-82
2021/12/09 02:16:08;;;;;;;17.42;8.43;;;3.50;99.90;;;;;;6228575;23;20413;-81
2021/12/09 02:18:34;;;;;;;18.70;8.98;;;3.40;99.90;;;;;;6253482;22;20025;-82
2021/12/09 02:21:10;;;;;;;18.98;8.85;;;3.40;99.90;;;;;;6253888;22;20013;-81
2021/12/09 02:23:36;;;;;;;19.13;9.65;;;3.30;99.90;;;;;;6253639;22;20419;-82
2021/12/09 02:26:03;;;;;;;20.80;9.90;;;5.60;99.90;;;;;;6252495;22;20017;-81
2021/12/09 02:28:29;;;;;;;37.92;12.57;;;4.40;99.90;;;;;;6227475;22;20096;-82
2021/12/09 02:30:55;;;;;;;21.58;9.10;;;5.30;99.90;;;;;;6254318;22;20376;-81
2021/12/09 02:33:21;;;;;;;16.75;9.23;;;3.70;99.90;;;;;;6253341;22;20024;-82
2021/12/09 02:35:46;;;;;;;16.80;10.70;;;5.60;99.90;;;;;;6253806;22;20135;-81
2021/12/09 02:38:12;;;;;;;23.52;11.65;;;3.90;99.90;;;;;;6253904;22;20037;-81
2021/12/09 02:40:38;;;;;;;24.08;12.15;;;3.50;99.90;;;;;;6253731;22;20021;-81
2021/12/09 02:43:07;;;;;;;25.77;12.18;;;3.50;99.90;;;;;;6253456;22;20021;-81
2021/12/09 02:45:33;;;;;;;23.42;12.30;;;3.30;99.90;;;;;;6252962;22;20028;-81
2021/12/09 02:47:59;;;;;;;31.35;13.15;;;3.40;99.90;;;;;;6228804;23;20028;-81
2021/12/09 02:50:24;;;;;;;23.05;12.23;;;3.20;99.90;;;;;;6253354;22;20081;-81
2021/12/09 02:52:50;;;;;;;33.20;13.93;;;3.30;99.90;;;;;;6253709;22;20017;-82
2021/12/09 02:55:16;;;;;;;24.10;12.85;;;3.40;99.90;;;;;;6252969;22;20117;-82
2021/12/09 02:57:41;;;;;;;33.80;13.80;;;5.10;99.90;;;;;;6253141;22;20024;-81
2021/12/09 03:00:11;;;;;;;35.88;14.07;;;5.40;99.90;;;;;;6253624;22;20074;-81
2021/12/09 03:02:37;;;;;;;21.58;10.90;;;3.60;99.90;;;;;;6253064;22;20014;-82
2021/12/09 03:05:04;;;;;;;25.60;11.13;;;3.70;99.90;;;;;;6253093;22;20025;-81
2021/12/09 03:07:34;;;;;;;24.73;11.18;;;3.90;99.90;;;;;;6253203;22;20017;-82
2021/12/09 03:10:09;;;;;;;32.22;14.15;;;5.00;99.90;;;;;;6253623;22;20125;-81
2021/12/09 03:12:39;;;;;;;28.80;13.18;;;3.70;99.90;;;;;;6253077;22;20013;-81
2021/12/09 03:15:08;;;;;;;29.23;13.45;;;3.70;99.90;;;;;;6253283;22;20529;-82
2021/12/09 03:17:35;;;;;;;23.45;12.00;;;3.60;99.90;;;;;;6278725;22;20371;-81
2021/12/09 03:20:01;;;;;;;26.80;12.60;;;3.60;99.90;;;;;;6253199;22;20013;-81
2021/12/09 03:22:26;;;;;;;805.05;64.13;;;3.30;99.90;;;;;;6227540;23;20031;-81
2021/12/09 03:24:53;;;;;;;24.17;12.15;;;3.80;99.90;;;;;;6253253;22;20020;-81
2021/12/09 03:27:18;;;;;;;26.88;12.48;;;4.80;99.90;;;;;;6252911;22;20490;-81
2021/12/09 03:29:44;;;;;;;29.40;13.57;;;3.30;99.90;;;;;;6253194;22;20059;-81
2021/12/09 03:32:13;;;;;;;29.52;14.02;;;3.20;99.90;;;;;;6253311;22;20018;-81
2021/12/09 03:34:43;;;;;;;30.42;13.75;;;5.10;99.90;;;;;;6253028;22;20013;-81
2021/12/09 03:37:12;;;;;;;35.63;16.77;;;3.50;99.90;;;;;;6253336;22;20018;-81
2021/12/09 03:39:40;;;;;;;22.85;11.90;;;3.40;99.90;;;;;;6252838;22;20032;-82
2021/12/09 03:42:08;;;;;;;26.35;12.68;;;3.20;99.90;;;;;;6252931;22;20025;-81
2021/12/09 03:44:35;;;;;;;21.58;12.10;;;3.40;99.90;;;;;;6253120;22;20447;-81
2021/12/09 03:47:05;;;;;;;28.38;12.65;;;4.60;99.90;;;;;;6279616;22;20011;-81
2021/12/09 03:49:31;;;;;;;25.17;11.35;;;3.30;99.90;;;;;;6253504;22;20106;-82
2021/12/09 03:51:57;;;;;;;29.02;14.15;;;3.50;99.90;;;;;;6279481;22;20085;-82
2021/12/09 03:54:24;;;;;;;29.08;14.20;;;3.30;99.90;;;;;;6278406;22;20034;-82
2021/12/09 03:56:50;;;;;;;31.38;13.23;;;3.50;99.90;;;;;;6278508;22;20526;-81
2021/12/09 03:59:15;;;;;;;22.02;11.20;;;3.50;99.90;;;;;;6279043;22;20109;-81
2021/12/09 04:01:44;;;;;;;26.23;11.27;;;3.40;99.90;;;;;;6278910;22;20055;-81
2021/12/09 04:04:10;;;;;;;28.67;12.02;;;5.10;99.90;;;;;;6279027;22;20118;-81
2021/12/09 04:06:36;;;;;;;22.02;11.35;;;4.60;99.90;;;;;;6278292;22;20012;-81
2021/12/09 04:09:05;;;;;;;84.10;11.93;;;3.10;99.90;;;;;;6279463;22;20057;-81
2021/12/09 04:11:34;;;;;;;31.10;12.77;;;3.50;99.90;;;;;;6278671;22;20086;-81
2021/12/09 04:14:00;;;;;;;33.63;14.68;;;3.40;99.90;;;;;;6278663;22;20076;-81
2021/12/09 04:16:26;;;;;;;18.13;9.57;;;3.40;99.90;;;;;;6278378;22;20043;-81
2021/12/09 04:18:52;;;;;;;32.38;14.23;;;4.90;99.90;;;;;;6279199;22;20070;-81
2021/12/09 04:21:17;;;;;;;25.23;13.23;;;3.10;99.90;;;;;;6254109;22;20015;-81
2021/12/09 04:23:44;;;;;;;35.40;15.02;;;5.30;99.90;;;;;;6281173;22;20094;-81
2021/12/09 04:26:10;;;;;;;25.20;10.27;;;5.20;99.90;;;;;;6280534;22;20098;-81
2021/12/09 04:28:37;;;;;;;23.58;11.13;;;3.10;99.90;;;;;;6280631;22;20051;-81
2021/12/09 04:31:03;;;;;;;23.95;13.32;;;1.50;99.90;;;;;;6280577;22;20313;-81
2021/12/09 04:33:29;;;;;;;26.42;13.88;;;4.60;99.90;;;;;;6280902;22;20101;-81
2021/12/09 04:35:56;;;;;;;35.58;15.20;;;3.70;99.90;;;;;;6280763;22;20015;-81
2021/12/09 04:38:22;;;;;;;22.10;13.77;;;3.50;99.90;;;;;;6280938;22;20468;-81
2021/12/09 04:40:48;;;;;;;22.85;12.18;;;3.20;99.90;;;;;;6281195;22;20015;-81
2021/12/09 04:43:14;;;;;;;23.65;11.35;;;2.90;99.90;;;;;;6280388;22;20019;-81
2021/12/09 04:45:40;;;;;;;23.33;10.10;;;3.10;99.90;;;;;;6254675;22;20018;-82
2021/12/09 04:48:07;;;;;;;24.50;12.52;;;3.30;99.90;;;;;;6254656;22;20155;-81
2021/12/09 04:50:34;;;;;;;31.77;12.63;;;3.20;99.90;;;;;;6280686;22;20021;-81
2021/12/09 04:53:00;;;;;;;17.60;9.68;;;3.10;99.90;;;;;;6254435;22;20047;-81
2021/12/09 04:55:26;;;;;;;21.15;8.73;;;4.60;99.90;;;;;;6254845;22;20051;-81
2021/12/09 04:57:52;;;;;;;24.50;10.27;;;3.30;99.90;;;;;;6254373;22;20021;-81
2021/12/09 05:00:21;;;;;;;25.08;12.45;;;3.10;99.90;;;;;;6255047;22;20024;-81
2021/12/09 05:05:26;;;;;;;15.57;8.00;;;3.10;99.90;;;;;;6254355;22;20026;-81
2021/12/09 05:07:52;;;;;;;16.52;9.35;;;3.40;99.90;;;;;;6254301;22;20048;-81
2021/12/09 05:10:17;;;;;;;18.98;8.15;;;3.10;99.90;;;;;;6254465;22;20096;-81
2021/12/09 05:12:43;;;;;;;25.00;9.82;;;3.30;99.90;;;;;;6254012;22;20010;-81
2021/12/09 05:15:10;;;;;;;18.85;9.90;;;5.10;99.90;;;;;;6228544;23;20159;-81
2021/12/09 05:17:35;;;;;;;26.15;10.60;;;5.10;99.90;;;;;;6253852;22;20017;-81
2021/12/09 05:20:03;;;;;;;22.08;10.45;;;3.40;99.90;;;;;;6253947;22;20505;-81
2021/12/09 05:22:28;;;;;;;28.35;12.82;;;4.50;99.90;;;;;;6253733;22;20021;-80
2021/12/09 05:24:55;;;;;;;24.48;11.73;;;3.20;99.90;;;;;;6254741;22;20018;-81
2021/12/09 05:27:21;;;;;;;618.25;50.38;;;3.10;99.90;;;;;;6254028;22;20018;-82
2021/12/09 05:30:02;;;;;;;24.70;11.23;;;5.80;99.90;;;;;;6253822;22;20066;-81
2021/12/09 05:32:28;;;;;;;23.63;12.45;;;3.40;99.90;;;;;;6253898;22;20048;-80
2021/12/09 05:34:54;;;;;;;30.70;12.85;;;3.50;99.90;;;;;;6253984;22;20398;-81
2021/12/09 05:37:23;;;;;;;28.20;13.43;;;5.60;99.90;;;;;;6253441;22;20025;-81
2021/12/09 05:39:50;;;;;;;24.88;12.15;;;3.20;99.90;;;;;;6253767;22;20010;-81
2021/12/09 05:42:18;;;;;;;21.20;11.30;;;3.50;99.90;;;;;;6228429;23;20443;-81
2021/12/09 05:44:44;;;;;;;33.90;11.82;;;3.10;99.90;;;;;;6287066;22;20504;-81
2021/12/09 05:47:12;;;;;;;24.77;11.52;;;3.20;99.90;;;;;;6279612;22;20016;-81
2021/12/09 05:49:40;;;;;;;26.05;13.07;;;3.40;99.90;;;;;;6279320;22;20074;-81
2021/12/09 05:52:06;;;;;;;26.73;11.60;;;5.20;99.90;;;;;;6280001;22;20019;-81
2021/12/09 05:54:33;;;;;;;21.33;9.00;;;3.20;99.90;;;;;;6279409;22;20015;-82
2021/12/09 05:56:59;;;;;;;19.63;11.27;;;4.70;99.90;;;;;;6280166;22;20030;-82
2021/12/09 05:59:25;;;;;;;28.02;11.05;;;3.40;99.90;;;;;;6279359;22;20046;-81
2021/12/09 06:01:52;;;;;;;23.50;10.05;;;4.20;99.90;;;;;;6254142;22;20023;-81
2021/12/09 06:04:18;;;;;;;36.65;11.73;;;5.70;99.90;;;;;;6279539;22;20019;-82
2021/12/09 06:06:44;;;;;;;22.92;10.95;;;3.60;99.90;;;;;;6279871;22;20022;-81
2021/12/09 06:09:11;;;;;;;20.40;8.57;;;4.00;99.90;;;;;;6279762;22;20019;-81
2021/12/09 06:11:39;;;;;;;22.63;9.90;;;5.70;99.90;;;;;;6305656;22;20030;-81
2021/12/09 06:14:06;;;;;;;13.55;7.30;;;3.60;99.90;;;;;;6280006;22;20015;-81
2021/12/09 06:16:33;;;;;;;22.17;9.40;;;3.70;99.90;;;;;;6279735;22;20015;-81
2021/12/09 06:18:59;;;;;;;28.23;11.43;;;3.40;99.90;;;;;;6279205;22;20445;-82
2021/12/09 06:21:27;;;;;;;35.58;11.10;;;3.40;99.90;;;;;;6279381;22;20022;-82
2021/12/09 06:23:55;;;;;;;18.83;7.55;;;3.40;99.90;;;;;;6279898;22;20064;-82
2021/12/09 06:26:21;;;;;;;22.38;8.63;;;3.10;99.90;;;;;;6279305;22;20087;-81
2021/12/09 06:28:47;;;;;;;21.55;8.70;;;3.70;99.90;;;;;;6279328;22;20021;-81
2021/12/09 06:31:13;;;;;;;21.30;10.50;;;5.20;99.90;;;;;;6279929;22;20082;-81
2021/12/09 06:33:39;;;;;;;29.02;9.63;;;4.20;99.90;;;;;;6278964;22;20319;-82
2021/12/09 06:36:05;;;;;;;28.67;11.68;;;3.40;99.90;;;;;;6279394;22;20095;-82
2021/12/09 06:38:31;;;;;;;29.38;11.00;;;3.30;99.90;;;;;;6279093;22;20015;-81
2021/12/09 06:40:58;;;;;;;21.95;10.20;;;4.80;99.90;;;;;;6279432;22;20015;-82
2021/12/09 06:43:23;;;;;;;23.77;10.13;;;3.20;99.90;;;;;;6277304;22;20064;-83
2021/12/09 06:45:51;;;;;;;39.55;12.27;;;4.60;99.90;;;;;;6252565;22;20398;-82
2021/12/09 06:48:17;;;;;;;26.05;11.15;;;4.50;99.90;;;;;;6253662;22;20335;-82
2021/12/09 06:50:43;;;;;;;22.80;10.93;;;5.30;99.90;;;;;;6253622;22;20018;-82
2021/12/09 06:53:09;;;;;;;27.45;10.73;;;4.70;99.90;;;;;;6253618;22;20018;-82
2021/12/09 06:55:35;;;;;;;27.48;10.63;;;3.90;99.90;;;;;;6227486;23;20017;-82
2021/12/09 06:58:01;;;;;;;26.77;10.90;;;4.10;99.90;;;;;;6252938;22;20013;-82
2021/12/09 07:00:29;;;;;;;25.67;10.35;;;3.40;99.90;;;;;;6227534;23;20021;-81
2021/12/09 07:02:55;;;;;;;28.25;9.40;;;3.30;99.90;;;;;;6253690;22;20018;-82
2021/12/09 07:05:24;;;;;;;26.63;8.77;;;3.10;99.90;;;;;;6252373;22;20032;-82
2021/12/09 07:07:50;;;;;;;24.45;9.45;;;3.30;99.90;;;;;;6227479;22;20013;-82
2021/12/09 07:10:17;;;;;;;33.92;9.57;;;3.10;99.90;;;;;;6253168;22;20019;-83
2021/12/09 07:12:43;;;;;;;19.02;7.10;;;3.70;99.90;;;;;;6252076;22;20096;-83
2021/12/09 07:15:11;;;;;;;17.50;6.93;;;3.60;99.90;;;;;;6227493;23;20053;-82
2021/12/09 07:17:38;;;;;;;25.50;9.10;;;3.50;99.90;;;;;;6252618;22;20018;-83
2021/12/09 07:20:06;;;;;;;17.48;7.88;;;3.50;99.90;;;;;;6226991;23;20062;-84
2021/12/09 07:22:32;;;;;;;19.80;8.68;;;3.80;99.90;;;;;;6252760;22;20021;-82
2021/12/09 07:24:57;;;;;;;32.38;10.65;;;3.80;99.90;;;;;;6251858;22;20018;-82
2021/12/09 07:27:23;;;;;;;24.05;9.48;;;3.70;99.90;;;;;;6251971;22;20029;-81
2021/12/09 07:29:49;;;;;;;21.08;9.27;;;5.60;99.90;;;;;;6253339;22;20411;-81
2021/12/09 07:32:14;;;;;;;26.13;9.30;;;4.40;99.90;;;;;;6252368;22;20017;-81
2021/12/09 07:34:40;;;;;;;15.30;6.80;;;5.90;99.90;;;;;;6252552;22;20552;-82
2021/12/09 07:37:06;;;;;;;22.02;8.30;;;3.80;99.90;;;;;;6252779;22;20018;-82
2021/12/09 07:39:33;;;;;;;24.02;9.77;;;3.70;99.90;;;;;;6252619;22;20029;-82
2021/12/09 07:41:59;;;;;;;16.48;5.93;;;3.60;99.90;;;;;;6252615;22;20032;-83
2021/12/09 07:44:26;;;;;;;21.60;8.10;;;5.80;99.90;;;;;;6252467;22;20049;-81
2021/12/09 07:46:54;;;;;;;28.33;9.60;;;5.60;99.90;;;;;;6252383;22;20018;-81
2021/12/09 07:49:20;;;;;;;29.23;9.95;;;4.90;99.90;;;;;;6226696;23;20028;-81
2021/12/09 07:51:46;;;;;;;24.63;9.48;;;5.90;99.90;;;;;;6253064;22;20078;-82
2021/12/09 07:54:12;;;;;;;23.70;8.40;;;6.00;99.90;;;;;;6250977;22;20382;-81
2021/12/09 07:56:37;;;;;;;23.35;8.88;;;3.70;99.90;;;;;;6252612;22;20021;-83
2021/12/09 07:59:03;;;;;;;24.77;10.07;;;5.40;99.90;;;;;;6228085;23;20510;-83
2021/12/09 08:01:29;;;;;;;20.80;6.75;;;5.60;99.90;;;;;;6252640;22;20083;-82
2021/12/09 08:03:56;;;;;;;17.33;6.35;;;3.60;99.90;;;;;;6253035;22;20018;-82
2021/12/09 08:06:21;;;;;;;17.13;7.00;;;4.30;99.90;;;;;;6252714;22;20014;-82
2021/12/09 08:08:47;;;;;;;16.33;6.03;;;3.90;99.90;;;;;;6252683;22;20022;-81
2021/12/09 08:11:13;;;;;;;25.88;9.45;;;3.80;99.90;;;;;;6253070;22;20018;-80
2021/12/09 08:13:39;;;;;;;21.92;8.40;;;3.70;99.90;;;;;;6252605;22;20049;-81
2021/12/09 08:16:04;;;;;;;14.45;5.80;;;3.80;99.90;;;;;;6252626;22;20436;-81
2021/12/09 08:18:43;;;;;;;33.33;8.10;;;4.70;99.90;;;;;;6252114;22;20336;-80
2021/12/09 08:21:09;;;;;;;21.88;7.97;;;6.40;99.90;;;;;;6227145;23;20731;-81
2021/12/09 08:23:35;;;;;;;20.63;7.25;;;4.10;99.90;;;;;;6252821;22;20018;-81
2021/12/09 08:26:00;;;;;;;17.85;7.72;;;4.00;99.90;;;;;;6252644;22;20017;-81
2021/12/09 08:28:26;;;;;;;17.15;6.63;;;4.10;99.90;;;;;;6252710;22;20097;-81
2021/12/09 08:30:52;;;;;;;20.17;6.43;;;4.10;99.90;;;;;;6227585;23;20053;-81
2021/12/09 08:33:21;;;;;;;15.80;5.40;;;4.60;99.90;;;;;;6226815;23;20029;-80
2021/12/09 08:35:47;;;;;;;24.38;5.78;;;4.60;99.90;;;;;;6252412;22;20071;-80
2021/12/09 08:38:12;;;;;;;16.38;5.72;;;6.70;99.90;;;;;;6226776;23;20018;-81
2021/12/09 08:40:38;;;;;;;18.25;6.93;;;6.70;99.90;;;;;;6252153;22;20728;-80
2021/12/09 08:43:04;;;;;;;15.50;5.78;;;6.00;99.90;;;;;;6252402;22;20097;-83
2021/12/09 08:45:30;;;;;;;20.48;6.53;;;4.90;99.90;;;;;;6251919;22;20092;-81
2021/12/09 08:47:56;;;;;;;15.68;6.20;;;4.80;99.90;;;;;;6252342;22;20044;-81
2021/12/09 08:50:24;;;;;;;28.02;9.98;;;4.90;99.90;;;;;;6252411;22;20329;-82
2021/12/09 08:52:52;;;;;;;21.77;8.23;;;4.90;99.90;;;;;;6252334;22;20378;-82
2021/12/09 08:55:19;;;;;;;17.10;5.78;;;5.70;99.90;;;;;;6252547;22;20017;-82
2021/12/09 08:57:46;;;;;;;16.25;5.75;;;5.20;99.90;;;;;;6251543;22;20022;-80
2021/12/09 09:00:14;;;;;;;13.50;6.57;;;7.00;99.90;;;;;;6252106;22;20029;-81
2021/12/09 09:02:42;;;;;;;14.32;5.95;;;5.50;99.90;;;;;;6252061;22;20089;-82
2021/12/09 09:05:11;;;;;;;15.18;6.80;;;5.60;99.90;;;;;;6278478;22;20553;-81
2021/12/09 09:07:38;;;;;;;26.58;7.32;;;5.40;99.90;;;;;;6252662;22;20013;-81
2021/12/09 09:10:06;;;;;;;19.67;7.32;;;3.60;99.90;;;;;;6253787;22;20013;-83
2021/12/09 09:12:33;;;;;;;18.15;7.35;;;5.30;99.90;;;;;;6254309;22;20071;-83
2021/12/09 09:15:00;;;;;;;16.73;6.65;;;7.30;99.90;;;;;;6228536;23;20486;-81
2021/12/09 09:17:26;;;;;;;20.40;7.90;;;5.70;99.90;;;;;;6254016;22;20397;-80
2021/12/09 09:19:51;;;;;;;19.83;7.40;;;7.70;99.90;;;;;;6254343;22;20014;-82
2021/12/09 09:22:17;;;;;;;17.40;7.18;;;5.80;99.90;;;;;;6254595;22;20422;-82
2021/12/09 09:24:43;;;;;;;19.25;7.95;;;7.20;99.90;;;;;;6253891;22;20016;-82
2021/12/09 09:27:09;;;;;;;18.27;7.85;;;5.60;99.90;;;;;;6228616;22;20087;-80
2021/12/09 09:29:37;;;;;;;11.15;6.28;;;5.30;99.90;;;;;;6254225;22;20022;-81
2021/12/09 09:32:04;;;;;;;20.55;7.90;;;5.20;99.90;;;;;;6254212;22;20116;-79
2021/12/09 09:34:30;;;;;;;12.93;6.93;;;5.40;99.90;;;;;;6254149;22;20017;-83
2021/12/09 09:36:56;;;;;;;15.63;7.00;;;5.40;99.90;;;;;;6253227;22;20025;-81
2021/12/09 09:39:28;;;;;;;18.77;7.95;;;5.60;99.90;;;;;;6228217;23;20463;-82
2021/12/09 09:42:06;;;;;;;16.40;7.05;;;5.60;99.90;;;;;;6253907;22;20026;-82
2021/12/09 09:44:45;;;;;;;20.85;7.45;;;7.40;99.90;;;;;;6254063;22;20017;-83
2021/12/09 09:47:11;;;;;;;17.40;8.80;;;5.70;99.90;;;;;;6280197;22;20015;-82
2021/12/09 09:49:38;;;;;;;22.52;9.57;;;7.50;99.90;;;;;;6254525;22;20015;-84
2021/12/09 09:52:05;;;;;;;23.95;8.50;;;6.70;99.90;;;;;;6279925;22;20017;-82
2021/12/09 09:54:31;;;;;;;17.83;7.72;;;5.30;99.90;;;;;;6280036;22;20337;-82
2021/12/09 09:56:57;;;;;;;28.00;9.98;;;5.50;99.90;;;;;;6280151;22;20094;-82
2021/12/09 09:59:23;;;;;;;24.15;10.27;;;5.80;99.90;;;;;;6254174;22;20007;-83
2021/12/09 10:01:52;;;;;;;18.95;9.90;;;5.90;99.90;;;;;;6279459;22;20579;-82
2021/12/09 10:04:26;;;;;;;19.10;9.13;;;7.00;99.90;;;;;;6279750;22;20114;-82
2021/12/09 10:06:53;;;;;;;23.23;9.25;;;6.50;99.90;;;;;;6279729;22;20011;-84
2021/12/09 10:09:19;;;;;;;21.83;9.05;;;5.60;99.90;;;;;;6280336;22;20050;-81
2021/12/09 10:11:45;;;;;;;25.52;10.40;;;5.40;99.90;;;;;;6279319;22;20011;-82
2021/12/09 10:14:23;;;;;;;19.52;9.23;;;5.80;99.90;;;;;;6279471;22;20317;-83
2021/12/09 10:17:06;;;;;;;23.73;10.38;;;5.90;99.90;;;;;;6279652;22;20016;-81
2021/12/09 10:19:34;;;;;;;25.48;10.63;;;6.00;99.90;;;;;;6279213;22;20023;-89
2021/12/09 10:22:05;;;;;;;23.67;11.80;;;7.70;99.90;;;;;;6279924;22;20416;-85
2021/12/09 10:24:32;;;;;;;28.50;11.75;;;5.90;99.90;;;;;;6279241;22;20015;-83
2021/12/09 10:26:58;;;;;;;22.67;9.52;;;7.30;99.90;;;;;;6279806;22;20098;-82
2021/12/09 10:29:31;;;;;;;29.30;10.55;;;7.60;99.90;;;;;;6279527;22;20018;-84
2021/12/09 10:32:01;;;;;;;23.48;10.93;;;7.10;99.90;;;;;;6279381;22;20015;-80
2021/12/09 10:34:39;;;;;;;23.05;12.20;;;5.50;99.90;;;;;;6279353;22;20090;-79
2021/12/09 10:37:21;;;;;;;27.25;13.15;;;7.70;99.90;;;;;;6278102;22;20396;-80
2021/12/09 10:39:52;;;;;;;26.85;12.85;;;5.90;99.90;;;;;;6277801;22;20011;-81
2021/12/09 10:42:22;;;;;;;22.77;11.88;;;6.00;99.90;;;;;;6304631;22;20480;-83
2021/12/09 10:44:54;;;;;;;29.77;12.07;;;5.90;99.90;;;;;;6253655;22;20026;-82
2021/12/09 10:47:36;;;;;;;19.27;11.10;;;5.80;99.90;;;;;;6278681;22;20054;-81
2021/12/09 10:50:11;;;;;;;24.80;10.85;;;6.80;99.90;;;;;;6278893;22;20020;-82
2021/12/09 10:52:43;;;;;;;27.77;11.45;;;5.50;99.90;;;;;;6279328;22;20055;-83
2021/12/09 10:55:12;;;;;;;20.02;11.32;;;6.90;99.90;;;;;;6253708;22;20007;-81
2021/12/09 10:57:38;;;;;;;23.65;11.15;;;6.10;99.90;;;;;;6278479;22;20011;-81
2021/12/09 11:00:19;;;;;;;29.42;13.80;;;6.20;99.90;;;;;;6277940;22;20425;-82
2021/12/09 11:03:00;;;;;;;19.33;10.95;;;6.30;99.90;;;;;;6278829;22;20068;-83
2021/12/09 11:05:26;;;;;;;21.20;11.02;;;6.30;99.90;;;;;;6278622;22;20015;-83
2021/12/09 11:07:52;;;;;;;24.45;11.82;;;6.10;99.90;;;;;;6252597;22;20459;-84
2021/12/09 11:10:24;;;;;;;26.40;11.32;;;5.20;99.90;;;;;;6279354;22;20093;-84
2021/12/09 11:12:52;;;;;;;24.17;12.95;;;7.90;99.90;;;;;;6278114;22;20015;-84
2021/12/09 11:15:19;;;;;;;26.20;11.45;;;6.20;99.90;;;;;;6253262;22;20376;-85
2021/12/09 11:17:48;;;;;;;23.95;12.45;;;7.90;99.90;;;;;;6279232;22;20015;-86
2021/12/09 11:20:14;;;;;;;24.02;11.18;;;6.30;99.90;;;;;;6279303;22;20022;-86
2021/12/09 11:22:43;;;;;;;23.63;10.85;;;7.60;99.90;;;;;;6279165;22;20018;-84
2021/12/09 11:25:34;;;;;;;19.30;10.85;;;6.60;99.90;;;;;;6279430;22;20014;-86
2021/12/09 11:28:12;;;;;;;26.33;13.40;;;6.00;99.90;;;;;;6278340;22;20420;-84
2021/12/09 11:31:09;;;;;;;30.35;12.30;;;7.30;99.90;;;;;;6279220;22;20389;-83
2021/12/09 11:33:40;;;;;;;21.20;12.45;;;6.00;99.90;;;;;;6279457;22;20015;-83
2021/12/09 11:36:07;;;;;;;35.08;11.80;;;7.30;99.90;;;;;;6276556;22;20019;-84
2021/12/09 11:38:53;;;;;;;21.23;11.10;;;6.30;99.90;;;;;;6276081;22;20015;-83
2021/12/09 11:41:31;;;;;;;24.90;12.77;;;6.30;99.90;;;;;;6277045;22;20088;-83
2021/12/09 11:43:57;;;;;;;24.55;12.27;;;6.10;99.90;;;;;;6277228;22;20015;-82
2021/12/09 11:46:23;;;;;;;20.80;11.57;;;6.60;99.90;;;;;;6252878;22;20025;-82
2021/12/09 11:48:49;;;;;;;21.17;12.57;;;7.70;99.90;;;;;;6252597;22;20471;-82
2021/12/09 11:51:15;;;;;;;23.77;12.13;;;8.20;99.90;;;;;;6252317;22;20017;-82
2021/12/09 11:53:43;;;;;;;23.50;11.95;;;6.30;99.90;;;;;;6253220;22;20022;-82
2021/12/09 11:56:34;;;;;;;26.30;11.20;;;8.20;99.90;;;;;;6252505;22;20036;-82
2021/12/09 12:07:43;;;;;;;23.83;11.93;;;6.30;99.90;;;;;;6252467;22;20114;-82
2021/12/09 12:13:01;;;;;;;20.42;10.13;;;7.30;99.90;;;;;;6150225;23;20018;-81
2021/12/09 12:18:19;;;;;;;;;;;6.30;99.90;;;;;;6253050;22;20365;-82
2021/12/09 12:20:58;;;;;;;23.13;11.25;;;6.50;99.90;;;;;;6227396;23;19966;-81
2021/12/09 12:23:54;;;;;;;18.20;11.50;;;7.70;99.90;;;;;;6253435;22;20013;-82
2021/12/09 12:32:09;;;;;;;22.73;11.40;;;6.00;99.90;;;;;;6252390;22;20056;-83
2021/12/09 12:40:13;;;;;;;20.05;10.82;;;7.40;99.90;;;;;;6253001;22;20018;-88
2021/12/09 12:42:48;;;;;;;20.77;11.85;;;6.50;99.90;;;;;;6254618;22;20045;-83
2021/12/09 12:48:09;;;;;;;20.35;10.75;;;6.40;99.90;;;;;;6280142;22;20080;-82
2021/12/09 12:50:35;;;;;;;20.85;10.93;;;6.30;99.90;;;;;;6280457;22;20019;-84
2021/12/09 12:53:30;;;;;;;18.85;11.07;;;6.40;99.90;;;;;;6280674;22;20391;-83
2021/12/09 12:56:31;;;;;;;28.00;12.15;;;6.50;99.90;;;;;;6279072;22;20055;-81
2021/12/09 12:59:05;;;;;;;20.95;11.23;;;6.50;99.90;;;;;;6279643;22;20047;-83
2021/12/09 13:01:32;;;;;;;19.80;10.05;;;6.90;99.90;;;;;;6280375;22;20330;-83
2021/12/09 13:04:06;;;;;;;25.70;11.15;;;8.30;99.90;;;;;;6278856;22;20398;-82
2021/12/09 13:06:47;;;;;;;20.90;10.98;;;6.40;99.90;;;;;;6254600;22;20441;-82
2021/12/09 13:09:34;;;;;;;24.52;10.38;;;6.10;99.90;;;;;;6280425;22;20019;-84
2021/12/09 13:12:05;;;;;;;27.48;11.30;;;8.20;99.90;;;;;;6279706;22;20034;-83
2021/12/09 13:14:34;;;;;;;27.63;13.00;;;7.90;99.90;;;;;;6279315;22;20331;-82
2021/12/09 13:17:08;;;;;;;21.13;11.25;;;8.40;99.90;;;;;;6280830;22;20014;-82